sensor_id;sensor_type;location;lat;lon;timestamp;P1;durP1;ratioP1;P2;durP2;ratioP2
20810;SDS011;10566;52.928;10.522;2022-07-19T00:01:55;8.80;;;4.20;;
20810;SDS011;10566;52.928;10.522;2022-07-19T00:04:21;8.15;;;4.13;;
20810;SDS011;10566;52.928;10.522;2022-07-19T00:06:46;10.77;;;4.60;;
20810;SDS011;10566;52.928;10.522;2022-07-19T00:09:14;12.23;;;4.18;;
20810;SDS011;10566;52.928;10.522;2022-07-19T00:11:39;8.55;;;4.53;;
20810;SDS011;10566;52.928;10.522;2022-07-19T00:14:05;9.65;;;4.70;;
20810;SDS011;10566;52.928;10.522;2022-07-19T00:16:30;13.75;;;4.50;;
20810;SDS011;10566;52.928;10.522;2022-07-19T00:18:56;11.07;;;4.90;;
20810;SDS011;10566;52.928;10.522;2022-07-19T00:21:22;9.77;;;4.38;;
20810;SDS011;10566;52.928;10.522;2022-07-19T00:23:47;8.77;;;4.40;;
20810;SDS011;10566;52.928;10.522;2022-07-19T00:26:13;8.00;;;4.30;;
20810;SDS011;10566;52.928;10.522;2022-07-19T00:28:38;8.45;;;4.10;;
20810;SDS011;10566;52.928;10.522;2022-07-19T00:31:04;10.23;;;4.32;;
20810;SDS011;10566;52.928;10.522;2022-07-19T00:33:29;7.88;;;4.13;;
20810;SDS011;10566;52.928;10.522;2022-07-19T00:35:55;9.70;;;4.25;;
20810;SDS011;10566;52.928;10.522;2022-07-19T00:38:20;12.30;;;4.55;;
20810;SDS011;10566;52.928;10.522;2022-07-19T00:40:46;10.32;;;4.13;;
20810;SDS011;10566;52.928;10.522;2022-07-19T00:43:12;8.00;;;4.30;;
20810;SDS011;10566;52.928;10.522;2022-07-19T00:45:37;13.18;;;4.38;;
20810;SDS011;10566;52.928;10.522;2022-07-19T00:48:06;9.18;;;4.47;;
20810;SDS011;10566;52.928;10.522;2022-07-19T00:50:32;10.60;;;4.03;;
20810;SDS011;10566;52.928;10.522;2022-07-19T00:52:59;11.00;;;4.90;;
20810;SDS011;10566;52.928;10.522;2022-07-19T00:55:29;13.48;;;4.93;;
20810;SDS011;10566;52.928;10.522;2022-07-19T00:57:57;7.65;;;4.40;;
20810;SDS011;10566;52.928;10.522;2022-07-19T01:00:23;8.60;;;4.50;;
20810;SDS011;10566;52.928;10.522;2022-07-19T01:02:50;9.13;;;4.85;;
20810;SDS011;10566;52.928;10.522;2022-07-19T01:05:16;9.93;;;5.03;;
20810;SDS011;10566;52.928;10.522;2022-07-19T01:07:42;11.77;;;4.63;;
20810;SDS011;10566;52.928;10.522;2022-07-19T01:10:09;13.25;;;5.13;;
20810;SDS011;10566;52.928;10.522;2022-07-19T01:12:36;12.63;;;5.00;;
20810;SDS011;10566;52.928;10.522;2022-07-19T01:15:02;13.27;;;5.25;;
20810;SDS011;10566;52.928;10.522;2022-07-19T01:17:40;14.90;;;4.90;;
20810;SDS011;10566;52.928;10.522;2022-07-19T01:20:05;12.38;;;4.80;;
20810;SDS011;10566;52.928;10.522;2022-07-19T01:22:32;10.45;;;4.95;;
20810;SDS011;10566;52.928;10.522;2022-07-19T01:24:58;10.32;;;5.03;;
20810;SDS011;10566;52.928;10.522;2022-07-19T01:27:23;8.70;;;4.75;;
20810;SDS011;10566;52.928;10.522;2022-07-19T01:29:49;10.40;;;4.70;;
20810;SDS011;10566;52.928;10.522;2022-07-19T01:32:14;10.40;;;4.88;;
20810;SDS011;10566;52.928;10.522;2022-07-19T01:34:40;11.02;;;4.88;;
20810;SDS011;10566;52.928;10.522;2022-07-19T01:37:05;11.30;;;4.82;;
20810;SDS011;10566;52.928;10.522;2022-07-19T01:39:31;10.15;;;5.45;;
20810;SDS011;10566;52.928;10.522;2022-07-19T01:41:57;10.63;;;5.35;;
20810;SDS011;10566;52.928;10.522;2022-07-19T01:44:23;10.27;;;5.32;;
20810;SDS011;10566;52.928;10.522;2022-07-19T01:46:49;15.55;;;5.93;;
20810;SDS011;10566;52.928;10.522;2022-07-19T01:49:14;12.75;;;5.72;;
20810;SDS011;10566;52.928;10.522;2022-07-19T01:51:40;11.02;;;5.32;;
20810;SDS011;10566;52.928;10.522;2022-07-19T01:54:05;9.30;;;5.55;;
20810;SDS011;10566;52.928;10.522;2022-07-19T01:56:31;16.58;;;5.55;;
20810;SDS011;10566;52.928;10.522;2022-07-19T01:58:56;9.90;;;5.40;;
20810;SDS011;10566;52.928;10.522;2022-07-19T02:01:22;11.48;;;5.75;;
20810;SDS011;10566;52.928;10.522;2022-07-19T02:03:47;12.75;;;5.25;;
20810;SDS011;10566;52.928;10.522;2022-07-19T02:06:13;11.57;;;5.60;;
20810;SDS011;10566;52.928;10.522;2022-07-19T02:08:38;11.90;;;5.70;;
20810;SDS011;10566;52.928;10.522;2022-07-19T02:11:05;12.18;;;5.40;;
20810;SDS011;10566;52.928;10.522;2022-07-19T02:13:49;11.82;;;6.07;;
20810;SDS011;10566;52.928;10.522;2022-07-19T02:16:15;12.83;;;6.40;;
20810;SDS011;10566;52.928;10.522;2022-07-19T02:18:41;10.87;;;5.60;;
20810;SDS011;10566;52.928;10.522;2022-07-19T02:21:06;9.80;;;5.60;;
20810;SDS011;10566;52.928;10.522;2022-07-19T02:23:32;9.32;;;5.65;;
20810;SDS011;10566;52.928;10.522;2022-07-19T02:25:58;8.77;;;5.53;;
20810;SDS011;10566;52.928;10.522;2022-07-19T02:28:23;9.35;;;5.50;;
20810;SDS011;10566;52.928;10.522;2022-07-19T02:30:49;9.30;;;5.50;;
20810;SDS011;10566;52.928;10.522;2022-07-19T02:33:14;8.30;;;5.20;;
20810;SDS011;10566;52.928;10.522;2022-07-19T02:35:40;8.70;;;5.50;;
20810;SDS011;10566;52.928;10.522;2022-07-19T02:38:05;8.25;;;5.60;;
20810;SDS011;10566;52.928;10.522;2022-07-19T02:40:31;12.95;;;5.88;;
20810;SDS011;10566;52.928;10.522;2022-07-19T02:42:56;9.60;;;6.07;;
20810;SDS011;10566;52.928;10.522;2022-07-19T02:45:22;12.80;;;6.17;;
20810;SDS011;10566;52.928;10.522;2022-07-19T02:47:47;13.50;;;6.43;;
20810;SDS011;10566;52.928;10.522;2022-07-19T02:50:13;12.43;;;6.10;;
20810;SDS011;10566;52.928;10.522;2022-07-19T02:52:38;10.57;;;6.15;;
20810;SDS011;10566;52.928;10.522;2022-07-19T02:55:04;9.93;;;5.67;;
20810;SDS011;10566;52.928;10.522;2022-07-19T02:57:30;12.57;;;6.13;;
20810;SDS011;10566;52.928;10.522;2022-07-19T02:59:56;15.73;;;6.22;;
20810;SDS011;10566;52.928;10.522;2022-07-19T03:02:21;15.60;;;6.10;;
20810;SDS011;10566;52.928;10.522;2022-07-19T03:04:47;11.13;;;5.93;;
20810;SDS011;10566;52.928;10.522;2022-07-19T03:07:13;11.23;;;5.90;;
20810;SDS011;10566;52.928;10.522;2022-07-19T03:09:39;11.83;;;5.17;;
20810;SDS011;10566;52.928;10.522;2022-07-19T03:12:05;10.33;;;5.77;;
20810;SDS011;10566;52.928;10.522;2022-07-19T03:14:30;9.17;;;5.70;;
20810;SDS011;10566;52.928;10.522;2022-07-19T03:16:56;11.80;;;5.63;;
20810;SDS011;10566;52.928;10.522;2022-07-19T03:19:22;8.43;;;5.63;;
20810;SDS011;10566;52.928;10.522;2022-07-19T03:21:50;10.07;;;5.70;;
20810;SDS011;10566;52.928;10.522;2022-07-19T03:24:15;12.03;;;6.53;;
20810;SDS011;10566;52.928;10.522;2022-07-19T03:26:41;13.07;;;6.63;;
20810;SDS011;10566;52.928;10.522;2022-07-19T03:29:07;12.20;;;6.17;;
20810;SDS011;10566;52.928;10.522;2022-07-19T03:31:32;11.57;;;6.47;;
20810;SDS011;10566;52.928;10.522;2022-07-19T03:33:58;11.87;;;6.03;;
20810;SDS011;10566;52.928;10.522;2022-07-19T03:36:23;11.43;;;6.07;;
20810;SDS011;10566;52.928;10.522;2022-07-19T03:38:49;14.03;;;6.13;;
20810;SDS011;10566;52.928;10.522;2022-07-19T03:41:14;14.33;;;6.23;;
20810;SDS011;10566;52.928;10.522;2022-07-19T03:43:40;13.57;;;6.40;;
20810;SDS011;10566;52.928;10.522;2022-07-19T03:46:06;13.87;;;6.00;;
20810;SDS011;10566;52.928;10.522;2022-07-19T03:48:31;13.27;;;6.60;;
20810;SDS011;10566;52.928;10.522;2022-07-19T03:50:57;12.60;;;6.88;;
20810;SDS011;10566;52.928;10.522;2022-07-19T03:53:22;14.27;;;6.03;;
20810;SDS011;10566;52.928;10.522;2022-07-19T03:55:48;13.43;;;6.80;;
20810;SDS011;10566;52.928;10.522;2022-07-19T03:58:13;13.30;;;5.80;;
20810;SDS011;10566;52.928;10.522;2022-07-19T04:00:39;11.00;;;5.73;;
20810;SDS011;10566;52.928;10.522;2022-07-19T04:03:04;9.77;;;5.75;;
20810;SDS011;10566;52.928;10.522;2022-07-19T04:05:30;9.80;;;5.68;;
20810;SDS011;10566;52.928;10.522;2022-07-19T04:07:56;12.77;;;5.80;;
20810;SDS011;10566;52.928;10.522;2022-07-19T04:10:21;12.93;;;5.50;;
20810;SDS011;10566;52.928;10.522;2022-07-19T04:12:47;11.77;;;5.97;;
20810;SDS011;10566;52.928;10.522;2022-07-19T04:15:12;12.20;;;6.22;;
20810;SDS011;10566;52.928;10.522;2022-07-19T04:17:38;12.23;;;6.32;;
20810;SDS011;10566;52.928;10.522;2022-07-19T04:20:04;12.77;;;6.30;;
20810;SDS011;10566;52.928;10.522;2022-07-19T04:22:31;15.27;;;6.00;;
20810;SDS011;10566;52.928;10.522;2022-07-19T04:24:56;10.80;;;5.97;;
20810;SDS011;10566;52.928;10.522;2022-07-19T04:27:22;12.05;;;6.05;;
20810;SDS011;10566;52.928;10.522;2022-07-19T04:29:47;11.73;;;6.10;;
20810;SDS011;10566;52.928;10.522;2022-07-19T04:32:14;11.88;;;5.90;;
20810;SDS011;10566;52.928;10.522;2022-07-19T04:34:39;10.23;;;5.80;;
20810;SDS011;10566;52.928;10.522;2022-07-19T04:37:05;13.70;;;6.50;;
20810;SDS011;10566;52.928;10.522;2022-07-19T04:39:31;12.30;;;5.75;;
20810;SDS011;10566;52.928;10.522;2022-07-19T04:41:56;8.05;;;5.70;;
20810;SDS011;10566;52.928;10.522;2022-07-19T04:44:22;12.55;;;6.10;;
20810;SDS011;10566;52.928;10.522;2022-07-19T04:46:47;10.63;;;6.93;;
20810;SDS011;10566;52.928;10.522;2022-07-19T04:49:13;9.50;;;6.20;;
20810;SDS011;10566;52.928;10.522;2022-07-19T04:51:42;9.10;;;6.28;;
20810;SDS011;10566;52.928;10.522;2022-07-19T04:54:07;13.10;;;6.25;;
20810;SDS011;10566;52.928;10.522;2022-07-19T04:56:33;11.25;;;6.03;;
20810;SDS011;10566;52.928;10.522;2022-07-19T04:58:59;11.43;;;5.95;;
20810;SDS011;10566;52.928;10.522;2022-07-19T05:01:24;9.10;;;6.07;;
20810;SDS011;10566;52.928;10.522;2022-07-19T05:03:50;10.98;;;6.28;;
20810;SDS011;10566;52.928;10.522;2022-07-19T05:06:15;11.23;;;6.60;;
20810;SDS011;10566;52.928;10.522;2022-07-19T05:08:41;10.13;;;6.65;;
20810;SDS011;10566;52.928;10.522;2022-07-19T05:11:06;14.60;;;6.80;;
20810;SDS011;10566;52.928;10.522;2022-07-19T05:13:32;11.77;;;6.20;;
20810;SDS011;10566;52.928;10.522;2022-07-19T05:15:57;9.45;;;6.43;;
20810;SDS011;10566;52.928;10.522;2022-07-19T05:18:23;10.75;;;6.43;;
20810;SDS011;10566;52.928;10.522;2022-07-19T05:20:49;14.57;;;6.53;;
20810;SDS011;10566;52.928;10.522;2022-07-19T05:23:14;12.05;;;6.32;;
20810;SDS011;10566;52.928;10.522;2022-07-19T05:25:40;13.30;;;6.45;;
20810;SDS011;10566;52.928;10.522;2022-07-19T05:28:05;10.85;;;6.65;;
20810;SDS011;10566;52.928;10.522;2022-07-19T05:30:31;9.88;;;6.10;;
20810;SDS011;10566;52.928;10.522;2022-07-19T05:32:56;12.57;;;6.07;;
20810;SDS011;10566;52.928;10.522;2022-07-19T05:35:22;13.48;;;6.63;;
20810;SDS011;10566;52.928;10.522;2022-07-19T05:37:48;11.73;;;6.40;;
20810;SDS011;10566;52.928;10.522;2022-07-19T05:40:13;12.85;;;6.72;;
20810;SDS011;10566;52.928;10.522;2022-07-19T05:42:39;13.63;;;7.07;;
20810;SDS011;10566;52.928;10.522;2022-07-19T05:45:04;12.50;;;6.75;;
20810;SDS011;10566;52.928;10.522;2022-07-19T05:47:30;12.35;;;6.30;;
20810;SDS011;10566;52.928;10.522;2022-07-19T05:49:56;13.38;;;6.80;;
20810;SDS011;10566;52.928;10.522;2022-07-19T05:52:24;12.43;;;6.80;;
20810;SDS011;10566;52.928;10.522;2022-07-19T05:54:50;12.20;;;6.65;;
20810;SDS011;10566;52.928;10.522;2022-07-19T05:57:15;16.50;;;6.65;;
20810;SDS011;10566;52.928;10.522;2022-07-19T05:59:41;12.50;;;7.00;;
20810;SDS011;10566;52.928;10.522;2022-07-19T06:02:06;10.57;;;6.00;;
20810;SDS011;10566;52.928;10.522;2022-07-19T06:04:32;13.18;;;6.30;;
20810;SDS011;10566;52.928;10.522;2022-07-19T06:06:58;11.68;;;6.38;;
20810;SDS011;10566;52.928;10.522;2022-07-19T06:09:26;14.95;;;6.55;;
20810;SDS011;10566;52.928;10.522;2022-07-19T06:11:52;12.20;;;6.10;;
20810;SDS011;10566;52.928;10.522;2022-07-19T06:14:18;14.00;;;6.28;;
20810;SDS011;10566;52.928;10.522;2022-07-19T06:16:43;10.07;;;6.45;;
20810;SDS011;10566;52.928;10.522;2022-07-19T06:19:09;12.82;;;6.15;;
20810;SDS011;10566;52.928;10.522;2022-07-19T06:21:36;9.18;;;5.07;;
20810;SDS011;10566;52.928;10.522;2022-07-19T06:24:02;8.88;;;5.35;;
20810;SDS011;10566;52.928;10.522;2022-07-19T06:26:28;12.18;;;5.43;;
20810;SDS011;10566;52.928;10.522;2022-07-19T06:28:54;16.25;;;5.53;;
20810;SDS011;10566;52.928;10.522;2022-07-19T06:31:20;9.43;;;5.35;;
20810;SDS011;10566;52.928;10.522;2022-07-19T06:33:46;11.20;;;5.50;;
20810;SDS011;10566;52.928;10.522;2022-07-19T06:36:13;13.43;;;5.10;;
20810;SDS011;10566;52.928;10.522;2022-07-19T06:38:40;13.68;;;5.07;;
20810;SDS011;10566;52.928;10.522;2022-07-19T06:41:08;14.32;;;6.00;;
20810;SDS011;10566;52.928;10.522;2022-07-19T06:43:35;11.73;;;5.22;;
20810;SDS011;10566;52.928;10.522;2022-07-19T06:46:03;12.05;;;5.10;;
20810;SDS011;10566;52.928;10.522;2022-07-19T06:48:29;9.32;;;4.85;;
20810;SDS011;10566;52.928;10.522;2022-07-19T06:50:55;10.25;;;4.80;;
20810;SDS011;10566;52.928;10.522;2022-07-19T06:53:21;11.93;;;4.63;;
20810;SDS011;10566;52.928;10.522;2022-07-19T06:55:46;8.13;;;4.07;;
20810;SDS011;10566;52.928;10.522;2022-07-19T06:58:13;8.63;;;4.32;;
20810;SDS011;10566;52.928;10.522;2022-07-19T07:00:38;8.95;;;4.22;;
20810;SDS011;10566;52.928;10.522;2022-07-19T07:03:04;6.65;;;3.50;;
20810;SDS011;10566;52.928;10.522;2022-07-19T07:05:30;9.98;;;4.00;;
20810;SDS011;10566;52.928;10.522;2022-07-19T07:07:56;7.57;;;4.22;;
20810;SDS011;10566;52.928;10.522;2022-07-19T07:10:21;9.82;;;4.05;;
20810;SDS011;10566;52.928;10.522;2022-07-19T07:12:48;10.43;;;4.03;;
20810;SDS011;10566;52.928;10.522;2022-07-19T07:15:14;8.93;;;3.85;;
20810;SDS011;10566;52.928;10.522;2022-07-19T07:17:39;6.88;;;3.67;;
20810;SDS011;10566;52.928;10.522;2022-07-19T07:20:06;9.65;;;3.85;;
20810;SDS011;10566;52.928;10.522;2022-07-19T07:22:33;6.65;;;3.58;;
20810;SDS011;10566;52.928;10.522;2022-07-19T07:24:59;9.95;;;4.18;;
20810;SDS011;10566;52.928;10.522;2022-07-19T07:27:25;7.40;;;3.75;;
20810;SDS011;10566;52.928;10.522;2022-07-19T07:29:51;7.03;;;3.42;;
20810;SDS011;10566;52.928;10.522;2022-07-19T07:32:16;7.18;;;3.63;;
20810;SDS011;10566;52.928;10.522;2022-07-19T07:34:42;6.28;;;3.80;;
20810;SDS011;10566;52.928;10.522;2022-07-19T07:37:08;6.65;;;4.00;;
20810;SDS011;10566;52.928;10.522;2022-07-19T07:39:33;7.95;;;4.10;;
20810;SDS011;10566;52.928;10.522;2022-07-19T07:41:59;13.60;;;10.02;;
20810;SDS011;10566;52.928;10.522;2022-07-19T07:44:25;8.00;;;3.80;;
20810;SDS011;10566;52.928;10.522;2022-07-19T07:46:51;6.78;;;3.72;;
20810;SDS011;10566;52.928;10.522;2022-07-19T07:49:17;8.43;;;3.67;;
20810;SDS011;10566;52.928;10.522;2022-07-19T07:51:43;9.35;;;3.72;;
20810;SDS011;10566;52.928;10.522;2022-07-19T07:54:08;8.82;;;3.70;;
20810;SDS011;10566;52.928;10.522;2022-07-19T07:56:34;8.10;;;3.60;;
20810;SDS011;10566;52.928;10.522;2022-07-19T07:59:00;6.90;;;3.60;;
20810;SDS011;10566;52.928;10.522;2022-07-19T08:01:25;8.05;;;3.80;;
20810;SDS011;10566;52.928;10.522;2022-07-19T08:03:51;7.78;;;3.55;;
20810;SDS011;10566;52.928;10.522;2022-07-19T08:06:17;8.63;;;3.70;;
20810;SDS011;10566;52.928;10.522;2022-07-19T08:08:42;8.95;;;3.53;;
20810;SDS011;10566;52.928;10.522;2022-07-19T08:11:08;5.95;;;3.78;;
20810;SDS011;10566;52.928;10.522;2022-07-19T08:13:34;6.38;;;3.15;;
20810;SDS011;10566;52.928;10.522;2022-07-19T08:15:59;6.55;;;3.30;;
20810;SDS011;10566;52.928;10.522;2022-07-19T08:18:25;8.77;;;3.75;;
20810;SDS011;10566;52.928;10.522;2022-07-19T08:20:50;7.13;;;3.72;;
20810;SDS011;10566;52.928;10.522;2022-07-19T08:23:16;8.02;;;3.65;;
20810;SDS011;10566;52.928;10.522;2022-07-19T08:25:41;6.57;;;2.97;;
20810;SDS011;10566;52.928;10.522;2022-07-19T08:28:07;6.13;;;3.05;;
20810;SDS011;10566;52.928;10.522;2022-07-19T08:30:32;5.72;;;3.00;;
20810;SDS011;10566;52.928;10.522;2022-07-19T08:32:58;6.75;;;2.60;;
20810;SDS011;10566;52.928;10.522;2022-07-19T08:35:25;6.72;;;2.25;;
20810;SDS011;10566;52.928;10.522;2022-07-19T08:37:51;5.22;;;2.70;;
20810;SDS011;10566;52.928;10.522;2022-07-19T08:40:17;5.93;;;2.45;;
20810;SDS011;10566;52.928;10.522;2022-07-19T08:42:43;5.70;;;2.92;;
20810;SDS011;10566;52.928;10.522;2022-07-19T08:45:09;5.65;;;2.60;;
20810;SDS011;10566;52.928;10.522;2022-07-19T08:47:35;6.32;;;2.65;;
20810;SDS011;10566;52.928;10.522;2022-07-19T08:50:07;10.18;;;2.80;;
20810;SDS011;10566;52.928;10.522;2022-07-19T08:52:34;6.45;;;2.70;;
20810;SDS011;10566;52.928;10.522;2022-07-19T08:55:00;7.68;;;2.97;;
20810;SDS011;10566;52.928;10.522;2022-07-19T08:57:26;5.88;;;2.75;;
20810;SDS011;10566;52.928;10.522;2022-07-19T09:00:11;5.47;;;2.90;;
20810;SDS011;10566;52.928;10.522;2022-07-19T09:02:37;6.15;;;2.53;;
20810;SDS011;10566;52.928;10.522;2022-07-19T09:05:04;5.72;;;2.80;;
20810;SDS011;10566;52.928;10.522;2022-07-19T09:07:33;7.10;;;2.85;;
20810;SDS011;10566;52.928;10.522;2022-07-19T09:10:16;5.00;;;2.90;;
20810;SDS011;10566;52.928;10.522;2022-07-19T09:13:00;8.18;;;4.30;;
20810;SDS011;10566;52.928;10.522;2022-07-19T09:18:18;4.55;;;2.70;;
20810;SDS011;10566;52.928;10.522;2022-07-19T09:20:46;6.07;;;3.00;;
20810;SDS011;10566;52.928;10.522;2022-07-19T09:23:14;4.90;;;2.72;;
20810;SDS011;10566;52.928;10.522;2022-07-19T09:25:41;6.55;;;2.53;;
20810;SDS011;10566;52.928;10.522;2022-07-19T09:28:15;7.65;;;3.10;;
20810;SDS011;10566;52.928;10.522;2022-07-19T09:30:43;6.57;;;2.80;;
20810;SDS011;10566;52.928;10.522;2022-07-19T09:33:11;4.95;;;2.70;;
20810;SDS011;10566;52.928;10.522;2022-07-19T09:35:44;7.63;;;2.83;;
20810;SDS011;10566;52.928;10.522;2022-07-19T09:40:51;6.28;;;2.50;;
20810;SDS011;10566;52.928;10.522;2022-07-19T09:43:18;6.30;;;2.90;;
20810;SDS011;10566;52.928;10.522;2022-07-19T09:45:45;8.38;;;3.90;;
20810;SDS011;10566;52.928;10.522;2022-07-19T09:48:11;4.93;;;2.42;;
20810;SDS011;10566;52.928;10.522;2022-07-19T09:50:36;7.60;;;2.67;;
20810;SDS011;10566;52.928;10.522;2022-07-19T09:53:03;8.80;;;3.00;;
20810;SDS011;10566;52.928;10.522;2022-07-19T09:55:30;6.28;;;2.90;;
20810;SDS011;10566;52.928;10.522;2022-07-19T09:57:57;4.47;;;2.55;;
20810;SDS011;10566;52.928;10.522;2022-07-19T10:00:30;5.45;;;2.80;;
20810;SDS011;10566;52.928;10.522;2022-07-19T10:03:02;5.43;;;2.55;;
20810;SDS011;10566;52.928;10.522;2022-07-19T10:05:32;4.70;;;2.47;;
20810;SDS011;10566;52.928;10.522;2022-07-19T10:07:58;9.20;;;2.88;;
20810;SDS011;10566;52.928;10.522;2022-07-19T10:10:25;8.07;;;2.80;;
20810;SDS011;10566;52.928;10.522;2022-07-19T10:12:55;5.63;;;2.50;;
20810;SDS011;10566;52.928;10.522;2022-07-19T10:15:24;5.93;;;2.50;;
20810;SDS011;10566;52.928;10.522;2022-07-19T10:17:56;4.63;;;2.45;;
20810;SDS011;10566;52.928;10.522;2022-07-19T10:20:24;7.00;;;2.30;;
20810;SDS011;10566;52.928;10.522;2022-07-19T10:22:51;7.57;;;2.40;;
20810;SDS011;10566;52.928;10.522;2022-07-19T10:25:22;8.23;;;2.50;;
20810;SDS011;10566;52.928;10.522;2022-07-19T10:27:50;6.10;;;2.25;;
20810;SDS011;10566;52.928;10.522;2022-07-19T10:32:50;6.97;;;2.40;;
20810;SDS011;10566;52.928;10.522;2022-07-19T10:35:31;5.47;;;2.42;;
20810;SDS011;10566;52.928;10.522;2022-07-19T10:40:43;4.88;;;2.60;;
20810;SDS011;10566;52.928;10.522;2022-07-19T10:45:41;9.13;;;2.50;;
20810;SDS011;10566;52.928;10.522;2022-07-19T10:48:12;5.85;;;2.30;;
20810;SDS011;10566;52.928;10.522;2022-07-19T10:50:44;3.33;;;1.80;;
20810;SDS011;10566;52.928;10.522;2022-07-19T10:53:58;5.95;;;2.15;;
20810;SDS011;10566;52.928;10.522;2022-07-19T10:56:23;6.38;;;2.03;;
20810;SDS011;10566;52.928;10.522;2022-07-19T10:58:51;8.25;;;1.80;;
20810;SDS011;10566;52.928;10.522;2022-07-19T11:01:24;7.15;;;2.10;;
20810;SDS011;10566;52.928;10.522;2022-07-19T11:03:53;7.03;;;1.90;;
20810;SDS011;10566;52.928;10.522;2022-07-19T11:06:39;5.72;;;1.90;;
20810;SDS011;10566;52.928;10.522;2022-07-19T11:09:38;4.03;;;1.98;;
20810;SDS011;10566;52.928;10.522;2022-07-19T11:14:48;4.38;;;2.00;;
20810;SDS011;10566;52.928;10.522;2022-07-19T11:17:13;7.80;;;1.90;;
20810;SDS011;10566;52.928;10.522;2022-07-19T11:19:58;3.65;;;1.75;;
20810;SDS011;10566;52.928;10.522;2022-07-19T11:22:27;7.20;;;1.95;;
20810;SDS011;10566;52.928;10.522;2022-07-19T11:25:01;5.85;;;1.92;;
20810;SDS011;10566;52.928;10.522;2022-07-19T11:27:35;5.00;;;1.90;;
20810;SDS011;10566;52.928;10.522;2022-07-19T11:30:03;5.07;;;1.92;;
20810;SDS011;10566;52.928;10.522;2022-07-19T11:32:33;5.75;;;2.15;;
20810;SDS011;10566;52.928;10.522;2022-07-19T11:35:05;4.38;;;2.10;;
20810;SDS011;10566;52.928;10.522;2022-07-19T11:37:35;3.92;;;1.90;;
20810;SDS011;10566;52.928;10.522;2022-07-19T11:40:06;4.72;;;2.10;;
20810;SDS011;10566;52.928;10.522;2022-07-19T11:42:43;5.57;;;2.05;;
20810;SDS011;10566;52.928;10.522;2022-07-19T11:48:10;6.05;;;2.03;;
20810;SDS011;10566;52.928;10.522;2022-07-19T11:50:36;6.65;;;2.28;;
20810;SDS011;10566;52.928;10.522;2022-07-19T11:53:01;8.27;;;2.13;;
20810;SDS011;10566;52.928;10.522;2022-07-19T11:55:37;5.75;;;2.08;;
20810;SDS011;10566;52.928;10.522;2022-07-19T11:58:09;5.85;;;2.10;;
20810;SDS011;10566;52.928;10.522;2022-07-19T12:00:36;9.40;;;4.35;;
20810;SDS011;10566;52.928;10.522;2022-07-19T12:03:04;4.43;;;2.22;;
20810;SDS011;10566;52.928;10.522;2022-07-19T12:05:34;6.18;;;2.30;;
20810;SDS011;10566;52.928;10.522;2022-07-19T12:08:03;5.03;;;2.13;;
20810;SDS011;10566;52.928;10.522;2022-07-19T12:10:31;5.22;;;2.10;;
20810;SDS011;10566;52.928;10.522;2022-07-19T12:12:59;4.82;;;2.00;;
20810;SDS011;10566;52.928;10.522;2022-07-19T12:15:25;4.43;;;2.00;;
20810;SDS011;10566;52.928;10.522;2022-07-19T12:17:54;3.90;;;2.10;;
20810;SDS011;10566;52.928;10.522;2022-07-19T12:20:21;5.75;;;2.10;;
20810;SDS011;10566;52.928;10.522;2022-07-19T12:22:47;5.97;;;1.98;;
20810;SDS011;10566;52.928;10.522;2022-07-19T12:25:13;3.90;;;1.85;;
20810;SDS011;10566;52.928;10.522;2022-07-19T12:27:39;5.63;;;1.88;;
20810;SDS011;10566;52.928;10.522;2022-07-19T12:30:17;5.55;;;2.00;;
20810;SDS011;10566;52.928;10.522;2022-07-19T12:32:44;7.20;;;2.00;;
20810;SDS011;10566;52.928;10.522;2022-07-19T12:35:13;5.68;;;1.80;;
20810;SDS011;10566;52.928;10.522;2022-07-19T12:37:40;4.72;;;2.00;;
20810;SDS011;10566;52.928;10.522;2022-07-19T12:40:09;6.30;;;1.90;;
20810;SDS011;10566;52.928;10.522;2022-07-19T12:45:04;4.15;;;2.05;;
20810;SDS011;10566;52.928;10.522;2022-07-19T12:47:31;3.72;;;2.10;;
20810;SDS011;10566;52.928;10.522;2022-07-19T12:57:43;4.95;;;2.20;;
20810;SDS011;10566;52.928;10.522;2022-07-19T13:02:49;4.68;;;2.17;;
20810;SDS011;10566;52.928;10.522;2022-07-19T13:05:25;6.63;;;2.20;;
20810;SDS011;10566;52.928;10.522;2022-07-19T13:07:53;7.18;;;2.28;;
20810;SDS011;10566;52.928;10.522;2022-07-19T13:10:19;5.30;;;2.05;;
20810;SDS011;10566;52.928;10.522;2022-07-19T13:12:47;5.63;;;2.47;;
20810;SDS011;10566;52.928;10.522;2022-07-19T13:15:32;5.05;;;2.15;;
20810;SDS011;10566;52.928;10.522;2022-07-19T13:18:00;8.00;;;2.28;;
20810;SDS011;10566;52.928;10.522;2022-07-19T13:20:35;6.57;;;2.38;;
20810;SDS011;10566;52.928;10.522;2022-07-19T13:23:05;7.57;;;2.13;;
20810;SDS011;10566;52.928;10.522;2022-07-19T13:25:31;6.70;;;2.25;;
20810;SDS011;10566;52.928;10.522;2022-07-19T13:27:56;5.28;;;2.45;;
20810;SDS011;10566;52.928;10.522;2022-07-19T13:30:22;5.72;;;2.00;;
20810;SDS011;10566;52.928;10.522;2022-07-19T13:32:48;6.25;;;2.35;;
20810;SDS011;10566;52.928;10.522;2022-07-19T13:35:14;6.88;;;2.40;;
20810;SDS011;10566;52.928;10.522;2022-07-19T13:37:39;10.00;;;2.40;;
20810;SDS011;10566;52.928;10.522;2022-07-19T13:40:05;7.75;;;2.47;;
20810;SDS011;10566;52.928;10.522;2022-07-19T13:42:31;6.13;;;2.20;;
20810;SDS011;10566;52.928;10.522;2022-07-19T13:44:56;3.28;;;2.20;;
20810;SDS011;10566;52.928;10.522;2022-07-19T13:47:22;6.07;;;2.63;;
20810;SDS011;10566;52.928;10.522;2022-07-19T13:49:48;8.38;;;2.40;;
20810;SDS011;10566;52.928;10.522;2022-07-19T13:52:13;7.53;;;2.20;;
20810;SDS011;10566;52.928;10.522;2022-07-19T13:54:39;7.22;;;2.33;;
20810;SDS011;10566;52.928;10.522;2022-07-19T13:57:04;4.18;;;2.10;;
20810;SDS011;10566;52.928;10.522;2022-07-19T13:59:30;5.32;;;2.13;;
20810;SDS011;10566;52.928;10.522;2022-07-19T14:01:56;4.93;;;2.30;;
20810;SDS011;10566;52.928;10.522;2022-07-19T14:04:22;5.53;;;2.33;;
20810;SDS011;10566;52.928;10.522;2022-07-19T14:06:48;8.63;;;2.22;;
20810;SDS011;10566;52.928;10.522;2022-07-19T14:09:13;4.28;;;2.10;;
20810;SDS011;10566;52.928;10.522;2022-07-19T14:11:39;5.18;;;2.33;;
20810;SDS011;10566;52.928;10.522;2022-07-19T14:14:04;6.57;;;2.47;;
20810;SDS011;10566;52.928;10.522;2022-07-19T14:16:30;6.25;;;2.45;;
20810;SDS011;10566;52.928;10.522;2022-07-19T14:18:56;6.97;;;2.10;;
20810;SDS011;10566;52.928;10.522;2022-07-19T14:21:21;6.68;;;2.13;;
20810;SDS011;10566;52.928;10.522;2022-07-19T14:23:47;4.10;;;2.10;;
20810;SDS011;10566;52.928;10.522;2022-07-19T14:26:13;7.82;;;2.10;;
20810;SDS011;10566;52.928;10.522;2022-07-19T14:28:38;7.68;;;2.10;;
20810;SDS011;10566;52.928;10.522;2022-07-19T14:31:04;8.43;;;2.60;;
20810;SDS011;10566;52.928;10.522;2022-07-19T14:33:30;5.28;;;2.03;;
20810;SDS011;10566;52.928;10.522;2022-07-19T14:35:55;6.63;;;2.22;;
20810;SDS011;10566;52.928;10.522;2022-07-19T14:38:21;7.35;;;2.22;;
20810;SDS011;10566;52.928;10.522;2022-07-19T14:40:47;8.27;;;2.50;;
20810;SDS011;10566;52.928;10.522;2022-07-19T14:43:12;7.55;;;2.17;;
20810;SDS011;10566;52.928;10.522;2022-07-19T14:45:38;4.72;;;2.30;;
20810;SDS011;10566;52.928;10.522;2022-07-19T14:48:04;7.15;;;2.53;;
20810;SDS011;10566;52.928;10.522;2022-07-19T14:50:30;7.20;;;2.00;;
20810;SDS011;10566;52.928;10.522;2022-07-19T14:52:55;6.68;;;2.10;;
20810;SDS011;10566;52.928;10.522;2022-07-19T14:55:21;7.25;;;2.13;;
20810;SDS011;10566;52.928;10.522;2022-07-19T14:57:47;6.63;;;2.33;;
20810;SDS011;10566;52.928;10.522;2022-07-19T15:00:13;10.07;;;2.45;;